Observations for PESCARA, Italy (LIBP)

LIBP 160650Z VRB02KT 9999 SCT040 SCT070 13/09 Q1023 
LIBP 160550Z AUTO 20003KT 160V250 9999 BKN041/// 13/08 Q1022
LIBP 160550Z AUTO 20003KT 160V250 9999 BKN041 13/08 Q1022
LIBP 160450Z AUTO 31003KT 270V350 9999 FEW042/// OVC065/// 13/09 Q1022  
LIBP 160450Z AUTO 31003KT 270V350 9999 FEW042 OVC065 13/09 Q1022
LIBP 160350Z AUTO 32004KT 280V360 9999 SCT039/// BKN074/// 14/08 Q1022  
LIBP 160350Z AUTO 32004KT 280V360 9999 SCT039 BKN074 14/08 Q1022
LIBP 160250Z AUTO VRB02KT 9999 OVC051/// 13/09 Q1022
LIBP 160250Z AUTO VRB02KT 9999 OVC051 13/09 Q1022
LIBP 160150Z AUTO 21002KT 9999 SCT037/// BKN070/// OVC140/// 13/10 Q1022
LIBP 160150Z AUTO 21002KT 9999 SCT037 BKN070 OVC140 13/10 Q1022
LIBP 160050Z AUTO 20003KT 9999 OVC052/// 13/11 Q1022
LIBP 160050Z AUTO 20003KT 9999 OVC052 13/11 Q1022
LIBP 152350Z AUTO 22005KT 9999 BKN045/// 13/10 Q1022
LIBP 152350Z AUTO 22005KT 9999 BKN045 13/10 Q1022
LIBP 152250Z AUTO 22003KT 9999 OVC160/// 12/11 Q1022
LIBP 152250Z AUTO 22003KT 9999 OVC160 12/11 Q1022
LIBP 152150Z VRB02KT 9999 FEW070 13/11 Q1022
LIBP 152050Z 23003KT 9999 SCT070 13/12 Q1022
LIBP 151950Z 20003KT 9999 FEW015 SCT060 13/12 Q1023 
LIBP 151850Z VRB02KT 9999 FEW025 BKN060 14/12 Q1023 
LIBP 151750Z VRB02KT 9999 FEW020 SCT060 14/12 Q1023 
LIBP 151650Z VRB02KT 9999 FEW025 SCT060 14/12 Q1023 
LIBP 151550Z 31003KT 9999 FEW020 SCT050 15/12 Q1023 
LIBP 151450Z 35004KT 310V040 9999 FEW020 SCT050 16/12 Q1023 
LIBP 151350Z 01007KT 340V050 9999 FEW018 17/13 Q1023
LIBP 151250Z 02008KT 9999 FEW030 17/13 Q1023
LIBP 151150Z 03007KT 9999 FEW030 17/12 Q1024
LIBP 151050Z 03005KT 340V060 9999 FEW030 17/12 Q1025
LIBP 150950Z 34005KT 290V020 9999 SCT030 17/11 Q1025
LIBP 150850Z 29003KT 220V360 9999 BKN020 16/12 Q1025
LIBP 150750Z 22003KT 9999 BKN022 14/11 Q1025
LIBP 150650Z 25003KT 9999 SCT030 13/11 Q1025